Time;durP1;ratioP1;P1;durP2;ratioP2;P2;SDS_P1;SDS_P2;PMS_P1;PMS_P2;Temp;Humidity;BMP_temperature;BMP_pressure;BME280_temperature;BME280_humidity;BME280_pressure;Samples;Min_cycle;Max_cycle;Signal;HPM_P1;HPM_P2
2023/09/30 00:01:46;274497.00;0.91;474.08;0.00;0.00;0.62;;;;;21.80;1.00;;;;;;2280055;60;1384;-88
2023/09/30 00:04:13;65452.00;0.22;113.90;0.00;0.00;0.62;;;;;21.90;1.00;;;;;;2280036;60;1768;-88
2023/09/30 00:06:40;188712.00;0.63;326.49;0.00;0.00;0.62;;;;;21.90;1.00;;;;;;2279918;60;1073;-88
2023/09/30 00:09:07;197458.00;0.66;341.55;0.00;0.00;0.62;;;;;21.80;1.00;;;;;;2279918;60;1684;-88
2023/09/30 00:11:36;400635.00;1.34;690.90;0.00;0.00;0.62;;;;;21.70;1.00;;;;;;2280339;60;1915;-88
2023/09/30 00:14:03;204221.00;0.68;353.19;0.00;0.00;0.62;;;;;21.60;1.00;;;;;;2280736;60;994;-88
2023/09/30 00:16:30;157231.00;0.52;272.27;0.00;0.00;0.62;;;;;21.70;1.00;;;;;;2280643;60;1073;-87
2023/09/30 00:18:58;140926.00;0.47;244.17;0.00;0.00;0.62;;;;;21.80;1.00;;;;;;2280688;60;1132;-88
2023/09/30 00:21:25;29445.00;0.10;51.62;0.00;0.00;0.62;;;;;21.90;1.00;;;;;;2280587;60;1339;-87
2023/09/30 00:23:51;266915.00;0.89;461.04;0.00;0.00;0.62;;;;;21.90;1.00;;;;;;2280646;60;1682;-87
2023/09/30 00:26:19;267968.00;0.89;462.85;0.00;0.00;0.62;;;;;21.50;1.00;;;;;;2280752;60;959;-89
2023/09/30 00:28:47;131231.00;0.44;227.45;0.00;0.00;0.62;;;;;21.20;1.00;;;;;;2280679;60;1594;-88
2023/09/30 00:31:14;181686.00;0.61;314.39;0.00;0.00;0.62;;;;;21.10;1.00;;;;;;2280636;60;1915;-87
2023/09/30 00:33:40;222731.00;0.74;385.04;0.00;0.00;0.62;;;;;21.00;1.00;;;;;;2280643;60;1084;-87
2023/09/30 00:36:09;176068.00;0.59;304.72;0.00;0.00;0.62;;;;;21.00;1.00;;;;;;2280693;60;1048;-88
2023/09/30 00:38:36;137274.00;0.46;237.87;0.00;0.00;0.62;;;;;21.20;1.00;;;;;;2280683;60;2041;-89
2023/09/30 00:41:03;278293.00;0.93;480.60;0.00;0.00;0.62;;;;;21.30;1.00;;;;;;2280502;60;1579;-88
2023/09/30 00:43:31;317346.00;1.06;547.74;0.00;0.00;0.62;;;;;21.40;1.00;;;;;;2280437;60;1033;-88
2023/09/30 00:46:05;808588.00;2.70;1396.11;86150.00;0.29;149.66;;;;;21.20;1.00;;;;;;2280583;60;1010;-89
2023/09/30 00:48:34;115708.00;0.39;200.68;0.00;0.00;0.62;;;;;21.10;1.00;;;;;;2280522;60;1049;-88
2023/09/30 00:51:01;146581.00;0.49;253.91;0.00;0.00;0.62;;;;;21.00;1.00;;;;;;2280569;60;1923;-88
2023/09/30 00:53:29;76677.00;0.26;133.30;0.00;0.00;0.62;;;;;21.00;1.00;;;;;;2280500;60;1479;-89
2023/09/30 00:55:57;282287.00;0.94;487.47;0.00;0.00;0.62;;;;;21.00;1.00;;;;;;2280627;60;1686;-88
2023/09/30 00:58:28;285256.00;0.95;492.57;0.00;0.00;0.62;;;;;21.10;1.00;;;;;;2280623;60;1001;-88
2023/09/30 01:00:59;40087.00;0.13;70.04;0.00;0.00;0.62;;;;;21.20;1.00;;;;;;2280602;60;1336;-89
2023/09/30 01:03:27;53610.00;0.18;93.43;0.00;0.00;0.62;;;;;20.90;1.00;;;;;;2280509;60;1013;-89
2023/09/30 01:08:24;406957.00;1.36;701.77;0.00;0.00;0.62;;;;;21.00;1.00;;;;;;2282249;61;1410;-89
2023/09/30 01:10:51;253374.00;0.84;437.75;0.00;0.00;0.62;;;;;20.80;1.00;;;;;;2280475;61;2010;-89
2023/09/30 01:13:18;256043.00;0.85;442.34;0.00;0.00;0.62;;;;;20.90;1.00;;;;;;2280606;61;1014;-88
2023/09/30 01:15:47;306844.00;1.02;529.68;0.00;0.00;0.62;;;;;21.00;1.00;;;;;;2280515;61;944;-88
2023/09/30 01:18:15;21229.00;0.07;37.40;0.00;0.00;0.62;;;;;21.20;1.00;;;;;;2280418;61;1684;-89
2023/09/30 01:20:42;167907.00;0.56;290.66;0.00;0.00;0.62;;;;;21.40;1.00;;;;;;2280395;61;1545;-87
2023/09/30 01:23:12;18796.00;0.06;33.19;0.00;0.00;0.62;;;;;21.40;1.00;;;;;;2280280;61;1053;-89
2023/09/30 01:25:39;91635.00;0.31;159.13;0.00;0.00;0.62;;;;;21.40;1.00;;;;;;2280484;61;1013;-88
2023/09/30 01:28:10;819661.00;2.73;1415.43;66484.00;0.22;115.68;;;;;21.30;1.00;;;;;;2280417;61;1044;-88
2023/09/30 01:30:37;55651.00;0.19;96.96;0.00;0.00;0.62;;;;;21.30;1.00;;;;;;2280414;61;1390;-90
2023/09/30 01:33:04;230476.00;0.77;398.37;7733.00;0.03;14.02;;;;;21.20;1.00;;;;;;2280521;61;923;-87
2023/09/30 01:35:31;80094.00;0.27;139.20;0.00;0.00;0.62;;;;;21.10;1.00;;;;;;2280474;61;1027;-88
2023/09/30 01:40:28;426555.00;1.42;735.46;0.00;0.00;0.62;;;;;21.00;1.00;;;;;;2282268;61;1366;-89
2023/09/30 01:45:24;320144.00;1.07;552.55;0.00;0.00;0.62;;;;;20.80;1.00;;;;;;2282337;61;1406;-89
2023/09/30 01:47:51;175389.00;0.58;303.55;0.00;0.00;0.62;;;;;20.80;1.00;;;;;;2280347;61;1592;-87
2023/09/30 01:50:18;244835.00;0.82;423.07;0.00;0.00;0.62;;;;;20.60;1.00;;;;;;2280158;61;1675;-88
2023/09/30 01:52:45;0.00;0.00;0.62;0.00;0.00;0.62;;;;;20.60;1.00;;;;;;2280323;61;2017;-88
2023/09/30 01:55:12;132119.00;0.44;228.98;0.00;0.00;0.62;;;;;20.50;1.00;;;;;;2280444;61;1078;-86
2023/09/30 01:57:40;124071.00;0.41;215.10;0.00;0.00;0.62;;;;;20.60;1.00;;;;;;2280457;61;1011;-87
2023/09/30 02:00:09;57631.00;0.19;100.38;0.00;0.00;0.62;;;;;20.60;1.00;;;;;;2280190;61;1612;-88
2023/09/30 02:02:36;13197.00;0.04;23.49;0.00;0.00;0.62;;;;;20.70;1.00;;;;;;2280398;61;1293;-87
2023/09/30 02:05:03;95653.00;0.32;166.07;0.00;0.00;0.62;;;;;20.70;1.00;;;;;;2280273;61;1786;-87
2023/09/30 02:07:30;237506.00;0.79;410.46;0.00;0.00;0.62;;;;;20.80;1.00;;;;;;2280331;61;991;-87
2023/09/30 02:09:58;45147.00;0.15;78.79;0.00;0.00;0.62;;;;;20.80;1.00;;;;;;2280335;61;1426;-87
2023/09/30 02:12:24;204285.00;0.68;353.30;0.00;0.00;0.62;;;;;21.00;1.00;;;;;;2280339;61;1994;-87
2023/09/30 02:14:53;258873.00;0.86;447.21;0.00;0.00;0.62;;;;;21.20;1.00;;;;;;2280350;61;1467;-87
2023/09/30 02:17:19;188103.00;0.63;325.44;0.00;0.00;0.62;;;;;21.10;1.00;;;;;;2280256;61;1514;-88
2023/09/30 02:19:47;175973.00;0.59;304.55;0.00;0.00;0.62;;;;;21.10;1.00;;;;;;2280359;61;1340;-90
2023/09/30 02:22:13;73778.00;0.25;128.29;0.00;0.00;0.62;;;;;21.10;1.00;;;;;;2282361;55;3737;-87
2023/09/30 02:24:40;101696.00;0.34;176.50;0.00;0.00;0.62;;;;;21.30;1.00;;;;;;2280284;60;1104;-90
2023/09/30 02:27:07;200484.00;0.67;346.76;0.00;0.00;0.62;;;;;20.80;1.00;;;;;;2287706;55;3914;-89
2023/09/30 02:29:34;60265.00;0.20;104.93;0.00;0.00;0.62;;;;;20.90;1.00;;;;;;2280170;60;1766;-90
2023/09/30 02:32:03;267089.00;0.89;461.34;0.00;0.00;0.62;;;;;20.90;1.00;;;;;;2280189;60;2006;-88
2023/09/30 02:34:31;131494.00;0.44;227.91;0.00;0.00;0.62;;;;;20.80;1.00;;;;;;2279975;60;1036;-88
2023/09/30 02:36:59;140191.00;0.47;242.90;0.00;0.00;0.62;;;;;20.50;1.00;;;;;;2285027;55;3745;-89
2023/09/30 02:39:27;231365.00;0.77;399.90;0.00;0.00;0.62;;;;;20.80;1.00;;;;;;2280129;60;1091;-89
2023/09/30 02:41:54;270639.00;0.90;467.44;0.00;0.00;0.62;;;;;20.70;1.00;;;;;;2280183;60;1584;-88
2023/09/30 02:44:21;167231.00;0.56;289.50;0.00;0.00;0.62;;;;;20.60;1.00;;;;;;2280240;60;1082;-87
2023/09/30 02:46:47;168963.00;0.56;292.48;0.00;0.00;0.62;;;;;20.50;1.00;;;;;;2280174;60;1826;-89
2023/09/30 02:51:45;274059.00;0.91;473.32;57919.00;0.19;100.88;;;;;20.40;1.00;;;;;;2281793;61;1976;-89
2023/09/30 02:54:15;69149.00;0.23;120.29;0.00;0.00;0.62;;;;;20.80;1.00;;;;;;2285740;39;3586;-86
2023/09/30 02:56:42;106361.00;0.35;184.55;0.00;0.00;0.62;;;;;20.80;1.00;;;;;;2280186;60;1125;-89
2023/09/30 03:01:38;473230.00;1.58;815.75;0.00;0.00;0.62;;;;;20.50;1.00;;;;;;2282260;61;1432;-88
2023/09/30 03:04:06;235466.00;0.78;406.95;0.00;0.00;0.62;;;;;20.10;1.00;;;;;;2280411;61;935;-88
2023/09/30 03:06:33;127230.00;0.42;220.55;0.00;0.00;0.62;;;;;20.00;1.00;;;;;;2280504;61;1240;-87
2023/09/30 03:09:04;15260.00;0.05;27.06;0.00;0.00;0.62;;;;;20.00;1.00;;;;;;2280410;61;1776;-88
2023/09/30 03:11:32;486.00;0.00;1.46;0.00;0.00;0.62;;;;;20.40;1.00;;;;;;2280398;61;1919;-88
2023/09/30 03:13:59;81953.00;0.27;142.41;0.00;0.00;0.62;;;;;20.60;1.00;;;;;;2280500;61;932;-88
2023/09/30 03:16:25;178455.00;0.59;308.83;0.00;0.00;0.62;;;;;20.50;1.00;;;;;;2280522;61;967;-89
2023/09/30 03:18:53;64977.00;0.22;113.08;0.00;0.00;0.62;;;;;20.60;1.00;;;;;;2280310;61;1645;-88
2023/09/30 03:21:19;125385.00;0.42;217.37;0.00;0.00;0.62;;;;;20.60;1.00;;;;;;2280391;61;1378;-88
2023/09/30 03:23:46;153268.00;0.51;265.44;0.00;0.00;0.62;;;;;20.50;1.00;;;;;;2280488;61;1012;-88
2023/09/30 03:26:15;119676.00;0.40;207.52;0.00;0.00;0.62;;;;;20.40;1.00;;;;;;2280417;61;2177;-87
2023/09/30 03:28:42;63693.00;0.21;110.86;0.00;0.00;0.62;;;;;20.00;1.00;;;;;;2280352;61;1467;-88
2023/09/30 03:31:10;88611.00;0.30;153.91;0.00;0.00;0.62;;;;;20.30;1.00;;;;;;2280372;61;1388;-88
2023/09/30 03:33:39;177598.00;0.59;307.35;0.00;0.00;0.62;;;;;20.10;1.00;;;;;;2280337;61;1934;-88
2023/09/30 03:38:36;411148.00;1.37;708.97;0.00;0.00;0.62;;;;;20.00;1.00;;;;;;2282460;61;1207;-88
2023/09/30 03:41:07;74925.00;0.25;130.27;0.00;0.00;0.62;;;;;20.40;1.00;;;;;;2280411;60;1296;-89
2023/09/30 03:43:40;30900.00;0.10;54.14;0.00;0.00;0.62;;;;;20.10;1.00;;;;;;2280430;60;1184;-89
2023/09/30 03:46:07;30438.00;0.10;53.34;0.00;0.00;0.62;;;;;19.90;1.00;;;;;;2280699;60;1581;-88
2023/09/30 03:51:09;495952.00;1.65;854.85;0.00;0.00;0.62;;;;;19.50;1.00;;;;;;2282736;61;1429;-88
2023/09/30 03:53:36;194636.00;0.65;336.69;0.00;0.00;0.62;;;;;19.50;1.00;;;;;;2281082;61;1930;-87
2023/09/30 03:58:32;490121.00;1.63;844.82;0.00;0.00;0.62;;;;;19.50;1.00;;;;;;2282938;60;1414;-87
2023/09/30 04:01:01;204836.00;0.68;354.25;0.00;0.00;0.62;;;;;19.90;1.00;;;;;;2280953;60;1541;-88
2023/09/30 04:03:28;288823.00;0.96;498.71;0.00;0.00;0.62;;;;;20.10;1.00;;;;;;2281015;60;912;-88
2023/09/30 04:05:55;243598.00;0.81;420.94;0.00;0.00;0.62;;;;;20.20;1.00;;;;;;2281075;60;1768;-89
2023/09/30 04:08:22;165408.00;0.55;286.36;0.00;0.00;0.62;;;;;20.20;1.00;;;;;;2280928;60;2168;-87
2023/09/30 04:10:50;107900.00;0.36;187.21;0.00;0.00;0.62;;;;;19.90;1.00;;;;;;2280933;60;1761;-89
2023/09/30 04:13:17;64609.00;0.22;112.44;0.00;0.00;0.62;;;;;20.20;1.00;;;;;;2281031;60;1914;-90
2023/09/30 04:18:14;219708.00;0.73;379.84;0.00;0.00;0.62;;;;;20.60;1.00;;;;;;2282885;61;1386;-89
2023/09/30 04:20:41;69494.00;0.23;120.89;0.00;0.00;0.62;;;;;20.50;1.00;;;;;;2280946;61;1398;-87
2023/09/30 04:23:10;98724.00;0.33;171.37;0.00;0.00;0.62;;;;;20.60;1.00;;;;;;2280869;61;1077;-88
2023/09/30 04:25:37;350300.00;1.17;604.38;56258.00;0.19;98.01;;;;;20.60;1.00;;;;;;2280864;61;1906;-87
2023/09/30 04:30:33;501598.00;1.67;864.58;0.00;0.00;0.62;;;;;20.60;1.00;;;;;;2282648;61;1422;-89
2023/09/30 04:33:00;254395.00;0.85;439.51;0.00;0.00;0.62;;;;;20.50;1.00;;;;;;2280846;61;2069;-88
2023/09/30 04:35:30;82160.00;0.27;142.77;0.00;0.00;0.62;;;;;20.20;1.00;;;;;;2280809;61;1106;-89
2023/09/30 04:38:00;114411.00;0.38;198.44;0.00;0.00;0.62;;;;;20.00;1.00;;;;;;2280946;61;908;-87
2023/09/30 04:40:27;108161.00;0.36;187.66;0.00;0.00;0.62;;;;;20.20;1.00;;;;;;2280811;61;1343;-88
2023/09/30 04:42:58;140382.00;0.47;243.23;0.00;0.00;0.62;;;;;20.10;1.00;;;;;;2280974;61;889;-88
2023/09/30 04:45:26;48764.00;0.16;85.05;0.00;0.00;0.62;;;;;19.90;1.00;;;;;;2280901;61;1212;-88
2023/09/30 04:47:52;36450.00;0.12;63.75;0.00;0.00;0.62;;;;;20.10;1.00;;;;;;2280825;61;1329;-89
2023/09/30 04:52:51;181226.00;0.60;313.60;0.00;0.00;0.62;;;;;20.10;1.00;;;;;;2282721;61;1992;-88
2023/09/30 04:55:18;211250.00;0.70;365.29;0.00;0.00;0.62;;;;;20.20;1.00;;;;;;2280893;61;1157;-87
2023/09/30 04:57:47;156484.00;0.52;270.98;15710.00;0.05;27.84;;;;;20.20;1.00;;;;;;2280700;61;1081;-87
2023/09/30 05:00:17;256720.00;0.86;443.51;20089.00;0.07;35.42;;;;;20.00;1.00;;;;;;2280807;61;1585;-88
2023/09/30 05:05:13;165564.00;0.55;286.63;0.00;0.00;0.62;;;;;20.10;1.00;;;;;;2278857;61;1419;-88
2023/09/30 05:07:40;31625.00;0.11;55.40;0.00;0.00;0.62;;;;;20.40;1.00;;;;;;2276858;61;916;-87
2023/09/30 05:10:11;92764.00;0.31;161.08;0.00;0.00;0.62;;;;;20.50;1.00;;;;;;2276753;61;1293;-86
2023/09/30 05:12:38;206779.00;0.69;357.59;0.00;0.00;0.62;;;;;20.70;1.00;;;;;;2276623;61;1915;-88
2023/09/30 05:15:06;163140.00;0.54;282.45;0.00;0.00;0.62;;;;;20.70;1.00;;;;;;2276672;61;1025;-88
2023/09/30 05:17:33;84654.00;0.28;147.08;0.00;0.00;0.62;;;;;20.50;1.00;;;;;;2276765;61;1615;-88
2023/09/30 05:20:00;0.00;0.00;0.62;0.00;0.00;0.62;;;;;20.40;1.00;;;;;;2276656;61;1367;-87
2023/09/30 05:22:27;227816.00;0.76;393.79;0.00;0.00;0.62;;;;;20.60;1.00;;;;;;2276757;61;1553;-87
2023/09/30 05:24:56;218669.00;0.73;378.05;0.00;0.00;0.62;;;;;20.80;1.00;;;;;;2276651;61;1740;-87
2023/09/30 05:27:24;42886.00;0.14;74.88;0.00;0.00;0.62;;;;;20.60;1.00;;;;;;2276825;61;1155;-87
2023/09/30 05:29:51;103483.00;0.34;179.58;0.00;0.00;0.62;;;;;20.60;1.00;;;;;;2276726;61;1411;-86
2023/09/30 05:32:18;150225.00;0.50;260.20;0.00;0.00;0.62;;;;;19.90;1.00;;;;;;2276672;61;1919;-87
2023/09/30 05:34:45;94058.00;0.31;163.31;0.00;0.00;0.62;;;;;19.90;1.00;;;;;;2276685;61;971;-88
2023/09/30 05:37:12;297700.00;0.99;513.97;0.00;0.00;0.62;;;;;20.30;1.00;;;;;;2276722;61;1692;-86
2023/09/30 05:39:40;72372.00;0.24;125.86;0.00;0.00;0.62;;;;;20.60;1.00;;;;;;2276572;61;1812;-87
2023/09/30 05:42:07;242411.00;0.81;418.90;0.00;0.00;0.62;;;;;20.40;1.00;;;;;;2276582;61;2104;-87
2023/09/30 05:44:35;12108.00;0.04;21.60;0.00;0.00;0.62;;;;;20.40;1.00;;;;;;2276632;61;1081;-87
2023/09/30 05:47:02;153653.00;0.51;266.10;0.00;0.00;0.62;;;;;20.30;1.00;;;;;;2276688;61;2091;-87
2023/09/30 05:49:29;29100.00;0.10;51.03;0.00;0.00;0.62;;;;;20.30;1.00;;;;;;2276714;61;1105;-87
2023/09/30 05:51:56;259194.00;0.86;447.76;0.00;0.00;0.62;;;;;20.20;1.00;;;;;;2276631;61;1915;-88
2023/09/30 05:54:23;198457.00;0.66;343.27;0.00;0.00;0.62;;;;;20.00;1.00;;;;;;2276720;61;830;-87
2023/09/30 05:56:50;160669.00;0.54;278.19;0.00;0.00;0.62;;;;;20.10;1.00;;;;;;2276653;61;895;-88
2023/09/30 05:59:17;69162.00;0.23;120.31;0.00;0.00;0.62;;;;;19.90;1.00;;;;;;2276653;61;1029;-88
2023/09/30 06:01:46;116412.00;0.39;201.89;0.00;0.00;0.62;;;;;20.00;1.00;;;;;;2276568;61;1495;-89
2023/09/30 06:04:13;139134.00;0.46;241.08;0.00;0.00;0.62;;;;;19.90;1.00;;;;;;2276605;61;1533;-88
2023/09/30 06:06:40;75754.00;0.25;131.70;0.00;0.00;0.62;;;;;20.00;1.00;;;;;;2276625;61;1038;-85
2023/09/30 06:09:08;76872.00;0.26;133.63;0.00;0.00;0.62;;;;;20.20;1.00;;;;;;2276557;61;1057;-88
2023/09/30 06:11:35;54526.00;0.18;95.01;0.00;0.00;0.62;;;;;20.50;1.00;;;;;;2276590;61;1419;-87
2023/09/30 06:14:06;2139.00;0.01;4.33;0.00;0.00;0.62;;;;;20.20;1.00;;;;;;2276611;61;2009;-88
2023/09/30 06:16:33;153912.00;0.51;266.55;13278.00;0.04;23.63;;;;;20.00;1.00;;;;;;2276660;61;1161;-88
2023/09/30 06:19:02;38740.00;0.13;67.71;0.00;0.00;0.62;;;;;20.00;1.00;;;;;;2276650;61;1030;-89
2023/09/30 06:21:29;267319.00;0.89;461.73;0.00;0.00;0.62;;;;;20.20;1.00;;;;;;2276509;61;1656;-88
2023/09/30 06:23:57;139240.00;0.46;241.26;0.00;0.00;0.62;;;;;20.30;1.00;;;;;;2276493;61;2278;-87
2023/09/30 06:26:28;119877.00;0.40;207.87;0.00;0.00;0.62;;;;;20.60;1.00;;;;;;2276620;61;985;-88
2023/09/30 06:28:56;51038.00;0.17;88.98;0.00;0.00;0.62;;;;;20.60;1.00;;;;;;2276482;61;1221;-88
2023/09/30 06:31:23;282305.00;0.94;487.50;12099.00;0.04;21.59;;;;;20.70;1.00;;;;;;2276530;61;1382;-89
2023/09/30 06:33:50;133634.00;0.45;231.60;0.00;0.00;0.62;;;;;20.60;1.00;;;;;;2276528;61;1998;-89
2023/09/30 06:38:50;176546.00;0.59;305.54;0.00;0.00;0.62;;;;;20.80;1.00;;;;;;2282545;61;1268;-88
2023/09/30 06:41:17;38199.00;0.13;66.77;0.00;0.00;0.62;;;;;21.00;1.00;;;;;;2280590;61;1430;-88
2023/09/30 06:43:45;147897.00;0.49;256.18;12627.00;0.04;22.50;;;;;21.10;1.00;;;;;;2280501;61;1684;-91
2023/09/30 06:46:12;232870.00;0.78;402.49;0.00;0.00;0.62;;;;;21.00;1.00;;;;;;2280645;61;1070;-89
2023/09/30 06:48:41;12306.00;0.04;21.94;0.00;0.00;0.62;;;;;20.90;1.00;;;;;;2280561;61;1106;-88
2023/09/30 06:51:08;286144.00;0.95;494.10;52746.00;0.18;91.93;;;;;21.00;1.00;;;;;;2280485;61;1360;-88
2023/09/30 06:53:35;274144.00;0.91;473.47;19507.00;0.07;34.42;;;;;20.90;1.00;;;;;;2280598;61;2010;-89
2023/09/30 06:56:05;11871.00;0.04;21.19;0.00;0.00;0.62;;;;;20.90;1.00;;;;;;2280536;61;1069;-89
2023/09/30 06:58:33;59707.00;0.20;103.97;0.00;0.00;0.62;;;;;20.30;1.00;;;;;;2280494;61;1124;-88
2023/09/30 07:01:00;13572.00;0.05;24.14;0.00;0.00;0.62;;;;;20.50;1.00;;;;;;2280512;61;1367;-89
2023/09/30 07:03:27;0.00;0.00;0.62;0.00;0.00;0.62;;;;;21.00;1.00;;;;;;2280594;61;949;-89
2023/09/30 07:05:56;50345.00;0.17;87.78;0.00;0.00;0.62;;;;;21.40;1.00;;;;;;2280422;61;1754;-88
2023/09/30 07:08:23;16716.00;0.06;29.58;0.00;0.00;0.62;;;;;21.40;1.00;;;;;;2280394;61;1124;-87
2023/09/30 07:10:50;0.00;0.00;0.62;0.00;0.00;0.62;;;;;21.20;1.00;;;;;;2280340;61;1357;-87
2023/09/30 07:13:18;137825.00;0.46;238.82;0.00;0.00;0.62;;;;;21.40;1.00;;;;;;2280417;61;1985;-88
2023/09/30 07:15:45;155282.00;0.52;268.91;0.00;0.00;0.62;;;;;21.30;1.00;;;;;;2280501;61;1042;-87
2023/09/30 07:18:12;90590.00;0.30;157.33;0.00;0.00;0.62;;;;;21.20;1.00;;;;;;2280506;61;1028;-88
2023/09/30 07:20:39;113399.00;0.38;196.69;0.00;0.00;0.62;;;;;21.50;1.00;;;;;;2280140;61;1630;-86
2023/09/30 07:23:08;71446.00;0.24;124.26;0.00;0.00;0.62;;;;;21.30;1.00;;;;;;2280400;61;1054;-87
2023/09/30 07:25:34;74471.00;0.25;129.49;0.00;0.00;0.62;;;;;21.60;1.00;;;;;;2280412;61;1605;-87
2023/09/30 07:28:02;0.00;0.00;0.62;0.00;0.00;0.62;;;;;21.80;1.00;;;;;;2280399;61;1717;-87
2023/09/30 07:30:30;305890.00;1.02;528.04;0.00;0.00;0.62;;;;;21.90;1.00;;;;;;2280381;61;1302;-87
2023/09/30 07:32:57;77876.00;0.26;135.37;0.00;0.00;0.62;;;;;22.00;1.00;;;;;;2280386;61;2005;-87
2023/09/30 07:35:24;112533.00;0.38;195.20;45086.00;0.15;78.69;;;;;21.50;1.00;;;;;;2280293;61;1723;-86
2023/09/30 07:37:53;108314.00;0.36;187.92;0.00;0.00;0.62;;;;;21.80;1.00;;;;;;2280366;61;1031;-87
2023/09/30 07:40:21;0.00;0.00;0.62;0.00;0.00;0.62;;;;;21.80;1.00;;;;;;2280330;61;1850;-87
2023/09/30 07:42:47;0.00;0.00;0.62;0.00;0.00;0.62;;;;;22.10;1.00;;;;;;2280370;61;1181;-88
2023/09/30 07:45:16;236907.00;0.79;409.43;0.00;0.00;0.62;;;;;22.30;1.00;;;;;;2280382;61;1561;-88
2023/09/30 07:47:46;15042.00;0.05;26.68;0.00;0.00;0.62;;;;;22.50;1.00;;;;;;2280380;61;1223;-87
2023/09/30 07:50:13;0.00;0.00;0.62;0.00;0.00;0.62;;;;;22.50;1.00;;;;;;2280325;61;1417;-88
2023/09/30 07:52:41;18946.00;0.06;33.44;0.00;0.00;0.62;;;;;22.10;1.00;;;;;;2280354;61;2001;-88
2023/09/30 07:55:09;71869.00;0.24;124.99;0.00;0.00;0.62;;;;;22.10;1.00;;;;;;2280407;61;1010;-87
2023/09/30 07:57:36;173018.00;0.58;299.46;0.00;0.00;0.62;;;;;22.30;1.00;;;;;;2280367;61;1065;-88
2023/09/30 08:00:07;220351.00;0.73;380.95;0.00;0.00;0.62;;;;;22.60;1.00;;;;;;2280309;61;1430;-88
2023/09/30 08:02:34;39283.00;0.13;68.65;0.00;0.00;0.62;;;;;22.70;1.00;;;;;;2280350;61;1605;-89
2023/09/30 08:05:03;41310.00;0.14;72.15;0.00;0.00;0.62;;;;;22.80;1.00;;;;;;2280355;61;994;-88
2023/09/30 08:07:30;157140.00;0.52;272.11;0.00;0.00;0.62;;;;;22.60;1.00;;;;;;2280266;61;1599;-88
2023/09/30 08:09:56;129949.00;0.43;225.24;0.00;0.00;0.62;;;;;23.00;1.00;;;;;;2280368;61;1379;-88
2023/09/30 08:12:23;131275.00;0.44;227.53;0.00;0.00;0.62;;;;;23.10;1.00;;;;;;2280320;61;921;-88
2023/09/30 08:14:51;187558.00;0.63;324.50;0.00;0.00;0.62;;;;;23.50;1.00;;;;;;2280230;61;2005;-88
2023/09/30 08:17:18;64775.00;0.22;112.73;0.00;0.00;0.62;;;;;23.70;1.00;;;;;;2280322;61;1595;-88
2023/09/30 08:19:46;16692.00;0.06;29.54;0.00;0.00;0.62;;;;;23.70;1.00;;;;;;2280294;61;1290;-87
2023/09/30 08:22:15;0.00;0.00;0.62;0.00;0.00;0.62;;;;;23.80;1.00;;;;;;2280328;61;1066;-89
2023/09/30 08:24:42;43648.00;0.15;76.20;0.00;0.00;0.62;;;;;23.60;1.00;;;;;;2280355;61;939;-86
2023/09/30 08:27:08;346757.00;1.16;598.29;19224.00;0.06;33.93;;;;;23.40;1.00;;;;;;2280246;61;1035;-89
2023/09/30 08:29:36;134417.00;0.45;232.95;0.00;0.00;0.62;;;;;23.30;1.00;;;;;;2280326;61;1085;-88
2023/09/30 08:32:03;279392.00;0.93;482.49;28601.00;0.10;50.16;;;;;23.00;1.00;;;;;;2280541;61;1564;-88
2023/09/30 08:34:30;49765.00;0.17;86.78;0.00;0.00;0.62;;;;;22.70;1.00;;;;;;2280831;61;1919;-89
2023/09/30 08:36:58;199242.00;0.66;344.62;0.00;0.00;0.62;;;;;22.50;1.00;;;;;;2280926;61;1615;-88
2023/09/30 08:39:26;10741.00;0.04;19.23;0.00;0.00;0.62;;;;;22.10;1.00;;;;;;2281013;61;907;-88
2023/09/30 08:41:55;90504.00;0.30;157.18;0.00;0.00;0.62;;;;;22.40;1.00;;;;;;2280849;61;1369;-89
2023/09/30 08:44:22;157676.00;0.53;273.04;0.00;0.00;0.62;;;;;22.70;1.00;;;;;;2280949;61;1072;-87
2023/09/30 08:46:52;349380.00;1.16;602.80;0.00;0.00;0.62;;;;;23.00;1.00;;;;;;2280733;61;1569;-88
2023/09/30 08:49:21;209648.00;0.70;362.53;0.00;0.00;0.62;;;;;23.10;1.00;;;;;;2280691;61;2124;-89
2023/09/30 08:51:50;0.00;0.00;0.62;0.00;0.00;0.62;;;;;23.20;1.00;;;;;;2280916;61;1265;-87
2023/09/30 08:54:17;115810.00;0.39;200.85;0.00;0.00;0.62;;;;;23.70;1.00;;;;;;2280791;61;1923;-89
2023/09/30 08:56:50;154413.00;0.51;267.41;0.00;0.00;0.62;;;;;23.80;1.00;;;;;;2280953;61;918;-88
2023/09/30 08:59:17;55872.00;0.19;97.34;0.00;0.00;0.62;;;;;23.30;1.00;;;;;;2280929;61;1086;-88
2023/09/30 09:01:44;82158.00;0.27;142.76;0.00;0.00;0.62;;;;;23.70;1.00;;;;;;2280836;61;1329;-88
2023/09/30 09:04:11;221089.00;0.74;382.22;0.00;0.00;0.62;;;;;23.90;1.00;;;;;;2280882;61;1077;-87
2023/09/30 09:06:38;19458.00;0.06;34.33;0.00;0.00;0.62;;;;;24.10;1.00;;;;;;2280887;61;1059;-88
2023/09/30 09:09:16;192803.00;0.64;333.53;0.00;0.00;0.62;;;;;24.10;1.00;;;;;;2280739;61;1527;-87
2023/09/30 09:11:44;0.00;0.00;0.62;0.00;0.00;0.62;;;;;24.20;1.00;;;;;;2280769;61;2403;-87
2023/09/30 09:14:11;47382.00;0.16;82.66;0.00;0.00;0.62;;;;;24.10;1.00;;;;;;2280806;61;2006;-87
2023/09/30 09:16:51;146095.00;0.49;253.08;0.00;0.00;0.62;;;;;24.00;1.00;;;;;;2280885;61;1030;-88
2023/09/30 09:19:18;7368.00;0.02;13.39;0.00;0.00;0.62;;;;;24.30;1.00;;;;;;2280872;61;1008;-88
2023/09/30 09:21:56;47310.00;0.16;82.53;0.00;0.00;0.62;;;;;24.10;1.00;;;;;;2280792;61;1328;-88
2023/09/30 09:24:28;81817.00;0.27;142.18;0.00;0.00;0.62;;;;;24.00;1.00;;;;;;2280753;61;939;-85
2023/09/30 09:27:05;157700.00;0.53;273.08;0.00;0.00;0.62;;;;;24.00;1.00;;;;;;2280712;61;1024;-86
2023/09/30 09:29:32;0.00;0.00;0.62;0.00;0.00;0.62;;;;;24.00;1.00;;;;;;2280715;61;1321;-86
2023/09/30 09:32:08;86171.00;0.29;149.70;0.00;0.00;0.62;;;;;24.10;1.00;;;;;;2288230;39;3781;-89
2023/09/30 09:39:34;440768.00;1.47;759.90;0.00;0.00;0.62;;;;;23.10;1.00;;;;;;2365322;40;3469;-90
2023/09/30 09:42:03;184336.00;0.61;318.96;0.00;0.00;0.62;;;;;23.00;1.00;;;;;;2280271;60;1619;-85
2023/09/30 09:44:31;38212.00;0.13;66.79;0.00;0.00;0.62;;;;;23.70;1.00;;;;;;2280623;60;1051;-86
2023/09/30 09:47:00;290031.00;0.97;500.78;48618.00;0.16;84.80;;;;;24.10;1.00;;;;;;2280643;60;1019;-87
2023/09/30 09:49:29;203232.00;0.68;351.49;28806.00;0.10;50.52;;;;;24.10;1.00;;;;;;2280688;60;1034;-87
2023/09/30 09:51:57;246891.00;0.82;426.60;0.00;0.00;0.62;;;;;24.00;1.00;;;;;;2280661;60;1189;-87
2023/09/30 09:54:25;8557.00;0.03;15.45;0.00;0.00;0.62;;;;;24.30;1.00;;;;;;2280664;60;2009;-86
2023/09/30 09:56:57;94038.00;0.31;163.28;0.00;0.00;0.62;;;;;24.10;1.00;;;;;;2280757;60;1104;-88
2023/09/30 09:59:26;17698.00;0.06;31.28;0.00;0.00;0.62;;;;;24.20;1.00;;;;;;2280675;60;1043;-90
2023/09/30 10:01:54;22487.00;0.07;39.58;0.00;0.00;0.62;;;;;24.30;1.00;;;;;;2280601;60;2173;-87
2023/09/30 10:04:21;22996.00;0.08;40.46;0.00;0.00;0.62;;;;;24.70;1.00;;;;;;2280595;60;1089;-88
2023/09/30 10:06:53;132721.00;0.44;230.02;43914.00;0.15;76.66;;;;;24.60;1.00;;;;;;2280656;60;939;-86
2023/09/30 10:09:20;0.00;0.00;0.62;0.00;0.00;0.62;;;;;24.30;1.00;;;;;;2280621;60;1101;-86
2023/09/30 10:11:48;23439.00;0.08;41.22;0.00;0.00;0.62;;;;;24.40;1.00;;;;;;2280680;60;1352;-88
2023/09/30 10:14:32;16819.00;0.06;29.76;0.00;0.00;0.62;;;;;24.10;1.00;;;;;;2280576;60;2293;-87
2023/09/30 10:16:59;89046.00;0.30;154.66;0.00;0.00;0.62;;;;;24.40;1.00;;;;;;2280619;60;1175;-86
2023/09/30 10:19:27;40332.00;0.13;70.46;0.00;0.00;0.62;;;;;24.70;1.00;;;;;;2280605;60;1558;-86
2023/09/30 10:22:22;159702.00;0.53;276.53;0.00;0.00;0.62;;;;;24.70;1.00;;;;;;2280695;60;1359;-89
2023/09/30 10:24:50;11209.00;0.04;20.04;0.00;0.00;0.62;;;;;24.20;1.00;;;;;;2280632;60;1043;-88
2023/09/30 10:27:37;23736.00;0.08;41.74;0.00;0.00;0.62;;;;;23.60;1.00;;;;;;2280655;60;924;-88
2023/09/30 10:30:16;38789.00;0.13;67.79;0.00;0.00;0.62;;;;;24.00;1.00;;;;;;2280586;60;1322;-87
2023/09/30 10:33:15;127372.00;0.42;220.80;0.00;0.00;0.62;;;;;24.10;1.00;;;;;;2280595;60;939;-88
2023/09/30 10:35:49;4053.00;0.01;7.64;0.00;0.00;0.62;;;;;24.50;1.00;;;;;;2280581;60;1944;-87
2023/09/30 10:38:41;87577.00;0.29;152.12;0.00;0.00;0.62;;;;;24.20;1.00;;;;;;2280572;60;1632;-86
2023/09/30 10:41:09;146515.00;0.49;253.80;0.00;0.00;0.62;;;;;23.50;1.00;;;;;;2280505;60;1311;-88
2023/09/30 10:43:37;264889.00;0.88;457.56;0.00;0.00;0.62;;;;;23.70;1.00;;;;;;2280609;60;1005;-88
2023/09/30 10:46:26;431042.00;1.44;743.18;13636.00;0.05;24.25;;;;;23.60;1.00;;;;;;2280588;60;977;-88
2023/09/30 10:48:54;522102.00;1.74;899.89;0.00;0.00;0.62;;;;;23.70;1.00;;;;;;2280513;60;1199;-88